createdAt,value
2022-09-14T00:01:37.548Z,98829.19
2022-09-14T00:04:08.155Z,98830.47
2022-09-14T00:06:36.844Z,98826.91
2022-09-14T00:09:07.876Z,98820.31
2022-09-14T00:11:37.628Z,98811.91
2022-09-14T00:14:06.719Z,98813.97
2022-09-14T00:16:37.083Z,98814.63
2022-09-14T00:19:07.150Z,98813.97
2022-09-14T00:21:36.278Z,98813.13
2022-09-14T00:24:05.134Z,98806.50
2022-09-14T00:26:34.671Z,98810.47
2022-09-14T00:29:04.993Z,98802.13
2022-09-14T00:31:34.989Z,98795.72
2022-09-14T00:34:03.814Z,98787.00
2022-09-14T00:36:32.530Z,98791.16
2022-09-14T00:39:01.028Z,98783.69
2022-09-14T00:41:33.104Z,98789.97
2022-09-14T00:44:04.992Z,98788.69
2022-09-14T00:46:36.457Z,98786.59
2022-09-14T00:49:08.093Z,98783.91
2022-09-14T00:51:38.979Z,98772.94
2022-09-14T00:54:08.038Z,98771.03
2022-09-14T00:56:36.311Z,98766.28
2022-09-14T00:59:08.568Z,98778.97
2022-09-14T01:01:36.759Z,98770.84
2022-09-14T01:04:05.018Z,98775.22
2022-09-14T01:06:38.035Z,98775.69
2022-09-14T01:09:16.851Z,98773.81
2022-09-14T01:11:53.815Z,98767.59
2022-09-14T01:14:27.739Z,98773.03
2022-09-14T01:17:05.844Z,98763.84
2022-09-14T01:19:42.701Z,98762.41
2022-09-14T01:22:15.608Z,98762.44
2022-09-14T01:24:47.964Z,98764.28
2022-09-14T01:27:34.490Z,98775.50
2022-09-14T01:30:06.217Z,98780.91
2022-09-14T01:32:39.815Z,98776.72
2022-09-14T01:35:15.814Z,98776.94
2022-09-14T01:37:47.130Z,98773.00
2022-09-14T01:40:18.380Z,98761.97
2022-09-14T01:42:51.970Z,98766.47
2022-09-14T01:45:22.292Z,98766.75
2022-09-14T01:47:54.580Z,98766.75
2022-09-14T01:50:26.335Z,98772.34
2022-09-14T01:52:58.504Z,98772.47
2022-09-14T01:55:29.389Z,98768.78
2022-09-14T01:58:02.369Z,98764.63
2022-09-14T02:00:31.635Z,98770.06
2022-09-14T02:03:03.178Z,98765.16
2022-09-14T02:05:36.154Z,98763.47
2022-09-14T02:08:04.440Z,98763.63
2022-09-14T02:10:32.835Z,98753.81
2022-09-14T02:13:02.505Z,98757.84
2022-09-14T02:15:31.022Z,98755.25
2022-09-14T02:17:59.214Z,98754.50
2022-09-14T02:20:30.138Z,98752.59
2022-09-14T02:22:58.484Z,98759.53
2022-09-14T02:25:26.744Z,98750.47
2022-09-14T02:27:55.408Z,98750.84
2022-09-14T02:30:25.089Z,98747.50
2022-09-14T02:33:02.212Z,98742.53
2022-09-14T02:35:34.002Z,98736.97
2022-09-14T02:38:06.540Z,98727.78
2022-09-14T02:40:37.404Z,98708.41
2022-09-14T02:43:18.065Z,98700.47
2022-09-14T02:45:53.791Z,98695.66
2022-09-14T02:48:24.839Z,98704.41
2022-09-14T02:50:58.399Z,98702.81
2022-09-14T02:53:29.707Z,98694.25
2022-09-14T02:56:00.988Z,98704.84
2022-09-14T02:58:36.173Z,98698.41
2022-09-14T03:01:07.288Z,98713.19
2022-09-14T03:03:36.022Z,98710.22
2022-09-14T03:06:05.085Z,98710.41
2022-09-14T03:08:33.493Z,98713.56
2022-09-14T03:11:01.755Z,98716.03
2022-09-14T03:13:29.789Z,98718.13
2022-09-14T03:15:58.075Z,98723.31
2022-09-14T03:18:27.660Z,98720.81
2022-09-14T03:20:55.805Z,98706.44
2022-09-14T03:23:23.924Z,98700.19
2022-09-14T03:25:52.151Z,98688.13
2022-09-14T03:28:20.367Z,98682.34
2022-09-14T03:30:48.488Z,98703.97
2022-09-14T03:33:16.670Z,98705.88
2022-09-14T03:35:46.487Z,98715.03
2022-09-14T03:38:14.657Z,98710.44
2022-09-14T03:40:42.883Z,98717.75
2022-09-14T03:43:12.410Z,98713.97
2022-09-14T03:45:40.929Z,98707.09
2022-09-14T03:48:09.142Z,98702.31
2022-09-14T03:50:37.368Z,98701.50
2022-09-14T03:53:06.826Z,98706.47
2022-09-14T03:55:34.839Z,98722.31
2022-09-14T03:58:03.217Z,98721.50
2022-09-14T04:00:31.584Z,98717.91
2022-09-14T04:03:01.604Z,98714.63
2022-09-14T04:05:29.855Z,98710.22
2022-09-14T04:07:57.916Z,98714.03
2022-09-14T04:10:27.489Z,98726.88
2022-09-14T04:12:55.701Z,98739.16
2022-09-14T04:15:23.846Z,98739.78
2022-09-14T04:17:52.160Z,98725.84
2022-09-14T04:20:20.287Z,98726.00
2022-09-14T04:22:48.571Z,98733.97
2022-09-14T04:25:16.945Z,98733.59
2022-09-14T04:27:58.977Z,98725.06
2022-09-14T04:30:34.738Z,98707.09
2022-09-14T04:33:02.937Z,98704.84
2022-09-14T04:35:31.299Z,98696.50
2022-09-14T04:37:59.550Z,98693.84
2022-09-14T04:40:28.973Z,98690.03
2022-09-14T04:42:58.683Z,98691.53
2022-09-14T04:45:27.095Z,98696.09
2022-09-14T04:47:55.703Z,98688.47
2022-09-14T04:50:23.797Z,98689.25
2022-09-14T04:52:53.774Z,98683.06
2022-09-14T04:55:22.109Z,98684.09
2022-09-14T04:57:50.753Z,98684.13
2022-09-14T05:00:21.068Z,98672.91
2022-09-14T05:02:49.720Z,98668.72
2022-09-14T05:05:18.153Z,98664.22
2022-09-14T05:07:46.465Z,98672.94
2022-09-14T05:10:14.610Z,98682.63
2022-09-14T05:12:43.107Z,98688.66
2022-09-14T05:15:11.440Z,98702.19
2022-09-14T05:17:41.077Z,98704.13
2022-09-14T05:20:10.718Z,98711.56
2022-09-14T05:22:39.466Z,98716.16
2022-09-14T05:25:08.476Z,98711.16
2022-09-14T05:27:36.884Z,98710.91
2022-09-14T05:30:05.675Z,98707.44
2022-09-14T05:32:34.134Z,98711.13
2022-09-14T05:35:03.919Z,98710.28
2022-09-14T05:37:32.202Z,98710.03
2022-09-14T05:40:00.804Z,98712.28
2022-09-14T05:42:29.032Z,98700.41
2022-09-14T05:44:57.460Z,98699.75
2022-09-14T05:47:25.704Z,98695.84
2022-09-14T05:49:54.026Z,98682.34
2022-09-14T05:52:24.004Z,98678.94
2022-09-14T05:54:52.381Z,98685.41
2022-09-14T05:57:20.559Z,98686.88
2022-09-14T05:59:49.383Z,98682.16
2022-09-14T06:02:20.624Z,98676.06
2022-09-14T06:04:53.686Z,98682.06
2022-09-14T06:07:23.551Z,98678.84
2022-09-14T06:09:51.926Z,98679.75
2022-09-14T06:12:20.194Z,98668.78
2022-09-14T06:14:48.357Z,98672.63
2022-09-14T06:17:16.583Z,98680.06
2022-09-14T06:19:44.729Z,98675.50
2022-09-14T06:22:13.045Z,98675.06
2022-09-14T06:24:43.106Z,98675.56
2022-09-14T06:27:12.092Z,98672.22
2022-09-14T06:29:40.430Z,98675.06
2022-09-14T06:32:08.604Z,98677.94
2022-09-14T06:34:36.740Z,98685.03
2022-09-14T06:37:04.905Z,98693.16
2022-09-14T06:39:33.113Z,98688.00
2022-09-14T06:42:02.680Z,98688.50
2022-09-14T06:44:31.111Z,98684.47
2022-09-14T06:46:59.530Z,98684.81
2022-09-14T06:49:27.712Z,98686.16
2022-09-14T06:51:57.533Z,98692.13
2022-09-14T06:54:26.173Z,98700.81
2022-09-14T06:56:54.554Z,98698.78
2022-09-14T06:59:24.102Z,98696.63
2022-09-14T07:01:52.682Z,98697.53
2022-09-14T07:04:21.690Z,98697.31
2022-09-14T07:06:50.867Z,98695.66
2022-09-14T07:09:20.265Z,98699.09
2022-09-14T07:11:49.311Z,98694.91
2022-09-14T07:14:17.585Z,98700.63
2022-09-14T07:16:47.456Z,98705.22
2022-09-14T07:19:16.454Z,98708.28
2022-09-14T07:21:44.656Z,98709.03
2022-09-14T07:24:14.968Z,98706.66
2022-09-14T07:26:43.899Z,98698.75
2022-09-14T07:29:13.744Z,98694.25
2022-09-14T07:31:43.767Z,98692.28
2022-09-14T07:34:13.985Z,98685.09
2022-09-14T07:36:42.790Z,98679.72
2022-09-14T07:39:14.795Z,98682.19
2022-09-14T07:41:43.473Z,98693.94
2022-09-14T07:44:14.931Z,98701.22
2022-09-14T07:46:44.680Z,98700.41
2022-09-14T07:49:14.899Z,98708.94
2022-09-14T07:51:43.257Z,98708.59
2022-09-14T07:54:13.284Z,98722.22
2022-09-14T07:56:42.536Z,98713.09
2022-09-14T07:59:34.396Z,98718.16
2022-09-14T08:02:00.535Z,98708.84
2022-09-14T08:04:30.026Z,98712.47
2022-09-14T08:06:59.062Z,98713.66
2022-09-14T08:09:27.760Z,98702.44
2022-09-14T08:11:56.176Z,98696.56
2022-09-14T08:14:24.623Z,98702.81
2022-09-14T08:16:52.789Z,98695.81
2022-09-14T08:19:21.299Z,98700.44
2022-09-14T08:21:51.207Z,98696.94
2022-09-14T08:24:21.370Z,98700.16
2022-09-14T08:26:49.919Z,98701.97
2022-09-14T08:29:19.218Z,98701.22
2022-09-14T08:31:47.977Z,98704.72
2022-09-14T08:34:17.359Z,98691.00
2022-09-14T08:36:46.777Z,98696.84
2022-09-14T08:39:17.702Z,98700.28
2022-09-14T08:41:54.673Z,98700.13
2022-09-14T08:44:27.463Z,98696.44
2022-09-14T08:47:03.278Z,98688.91
2022-09-14T08:49:51.217Z,98684.44
2022-09-14T08:52:25.579Z,98692.59
2022-09-14T08:54:57.603Z,98694.50
2022-09-14T08:57:35.742Z,98705.97
2022-09-14T09:00:11.226Z,98695.72
2022-09-14T09:02:52.078Z,98696.19
2022-09-14T09:05:30.280Z,98707.38
2022-09-14T09:08:04.157Z,98690.59
2022-09-14T09:10:35.800Z,98690.28
2022-09-14T09:13:07.294Z,98695.69
2022-09-14T09:15:43.205Z,98694.38
2022-09-14T09:18:16.231Z,98682.28
2022-09-14T09:20:50.254Z,98687.72
2022-09-14T09:23:20.470Z,98684.88
2022-09-14T09:25:55.176Z,98693.34
2022-09-14T09:28:25.278Z,98684.34
2022-09-14T09:30:54.656Z,98692.50
2022-09-14T09:33:32.408Z,98685.34
2022-09-14T09:36:15.159Z,98688.88
2022-09-14T09:38:44.295Z,98690.78
2022-09-14T09:41:19.467Z,98706.75
2022-09-14T09:44:02.160Z,98698.72
2022-09-14T09:46:33.252Z,98706.13
2022-09-14T09:49:05.875Z,98708.31
2022-09-14T09:51:34.914Z,98712.69
2022-09-14T09:54:08.378Z,98708.56
2022-09-14T09:56:40.345Z,98710.34
2022-09-14T09:59:24.169Z,98703.13
2022-09-14T10:01:54.329Z,98704.31
2022-09-14T10:04:24.618Z,98717.56
2022-09-14T10:06:54.538Z,98715.88
2022-09-14T10:09:24.410Z,98729.25
2022-09-14T10:12:00.394Z,98746.25
2022-09-14T10:14:32.187Z,98745.50
2022-09-14T10:17:08.547Z,98747.19
2022-09-14T10:19:36.798Z,98749.09
2022-09-14T10:22:24.384Z,98746.19
2022-09-14T10:24:58.059Z,98745.34
2022-09-14T10:27:42.655Z,98753.31
2022-09-14T10:30:15.575Z,98752.81
2022-09-14T10:32:46.109Z,98739.47
2022-09-14T10:35:15.811Z,98739.94
2022-09-14T10:37:53.935Z,98733.22
2022-09-14T10:40:27.831Z,98734.50
2022-09-14T10:43:05.865Z,98720.94
2022-09-14T10:45:37.080Z,98698.16
2022-09-14T10:48:26.445Z,98687.88
2022-09-14T10:51:01.074Z,98684.22
2022-09-14T10:53:46.485Z,98691.69
2022-09-14T10:56:19.549Z,98695.94
2022-09-14T10:59:05.103Z,98691.19
2022-09-14T11:01:45.247Z,98666.16
2022-09-14T11:04:24.710Z,98658.03
2022-09-14T11:06:57.306Z,98652.59
2022-09-14T11:09:28.652Z,98647.31
2022-09-14T11:12:04.802Z,98657.25
2022-09-14T11:14:48.354Z,98658.16
2022-09-14T11:17:27.167Z,98639.78
2022-09-14T11:20:02.198Z,98655.84
2022-09-14T11:22:36.365Z,98644.53
2022-09-14T11:25:10.443Z,98637.56
2022-09-14T11:27:42.236Z,98643.38
2022-09-14T11:30:16.166Z,98640.66
2022-09-14T11:32:48.549Z,98633.13
2022-09-14T11:35:20.322Z,98638.69
2022-09-14T11:37:51.601Z,98645.66
2022-09-14T11:40:25.079Z,98639.38
2022-09-14T11:42:58.265Z,98631.00
2022-09-14T11:45:32.184Z,98627.72
2022-09-14T11:48:31.967Z,98628.38
2022-09-14T11:51:03.722Z,98616.09
2022-09-14T11:53:32.842Z,98605.69
2022-09-14T11:56:01.305Z,98598.00
2022-09-14T11:58:30.978Z,98587.56
2022-09-14T12:01:26.871Z,98576.31
2022-09-14T12:04:19.240Z,98568.59
2022-09-14T12:07:05.346Z,98559.97
2022-09-14T12:09:53.524Z,98549.28
2022-09-14T12:12:34.326Z,98552.16
2022-09-14T12:15:15.876Z,98543.59
2022-09-14T12:17:45.901Z,98539.06
2022-09-14T12:20:35.621Z,98533.03
2022-09-14T12:23:07.770Z,98522.72
2022-09-14T12:25:36.242Z,98513.41
2022-09-14T12:28:04.377Z,98516.94
2022-09-14T12:30:40.593Z,98504.56
2022-09-14T12:33:43.923Z,98508.13
2022-09-14T12:36:13.202Z,98509.88
2022-09-14T12:39:00.151Z,98503.81
2022-09-14T12:42:03.085Z,98494.56
2022-09-14T12:44:36.955Z,98488.44
2022-09-14T12:47:40.174Z,98488.41
2022-09-14T12:50:17.478Z,98491.38
2022-09-14T12:52:54.338Z,98488.38
2022-09-14T12:55:41.792Z,98492.41
2022-09-14T12:58:20.149Z,98486.88
2022-09-14T13:00:55.607Z,98490.84
2022-09-14T13:03:42.007Z,98479.72
2022-09-14T13:06:14.015Z,98489.19
2022-09-14T13:08:46.399Z,98491.22
2022-09-14T13:11:26.764Z,98481.88
2022-09-14T13:13:55.419Z,98484.94
2022-09-14T13:16:32.166Z,98478.53
2022-09-14T13:19:05.131Z,98474.69
2022-09-14T13:21:35.381Z,98471.53
2022-09-14T13:24:03.936Z,98469.41
2022-09-14T13:26:33.430Z,98473.78
2022-09-14T13:29:02.738Z,98477.41
2022-09-14T13:31:33.369Z,98472.34
2022-09-14T13:34:03.091Z,98476.03
2022-09-14T13:36:34.580Z,98475.81
2022-09-14T13:39:05.314Z,98472.78
2022-09-14T13:41:33.681Z,98472.09
2022-09-14T13:44:01.984Z,98475.47
2022-09-14T13:46:30.478Z,98472.03
2022-09-14T13:48:58.966Z,98472.22
2022-09-14T13:51:29.933Z,98479.09
2022-09-14T13:53:59.556Z,98476.34
2022-09-14T13:56:32.026Z,98485.84
2022-09-14T13:59:18.261Z,98483.66
2022-09-14T14:01:56.313Z,98489.75
2022-09-14T14:04:29.109Z,98483.47
2022-09-14T14:07:06.524Z,98486.81
2022-09-14T14:09:43.887Z,98486.25
2022-09-14T14:12:24.153Z,98487.06
2022-09-14T14:14:56.939Z,98484.84
2022-09-14T14:17:32.882Z,98475.09
2022-09-14T14:20:29.940Z,98475.97
2022-09-14T14:23:00.160Z,98466.81
2022-09-14T14:25:34.671Z,98472.56
2022-09-14T14:28:06.663Z,98469.28
2022-09-14T14:30:37.033Z,98474.50
2022-09-14T14:33:06.837Z,98458.53
2022-09-14T14:35:35.041Z,98465.47
2022-09-14T14:38:03.373Z,98456.28
2022-09-14T14:40:32.233Z,98455.84
2022-09-14T14:43:01.743Z,98451.22
2022-09-14T14:45:36.002Z,98451.50
2022-09-14T14:48:05.088Z,98453.13
2022-09-14T14:50:36.178Z,98455.59
2022-09-14T14:53:05.560Z,98449.91
2022-09-14T14:55:35.608Z,98432.59
2022-09-14T14:58:07.155Z,98442.06
2022-09-14T15:00:39.898Z,98435.25
2022-09-14T15:03:08.295Z,98442.00
2022-09-14T15:05:36.575Z,98446.28
2022-09-14T15:08:04.871Z,98446.75
2022-09-14T15:10:33.295Z,98440.63
2022-09-14T15:13:01.942Z,98439.41
2022-09-14T15:15:33.624Z,98450.84
2022-09-14T15:18:03.326Z,98442.06
2022-09-14T15:20:31.561Z,98451.81
2022-09-14T15:22:59.888Z,98446.91
2022-09-14T15:25:28.275Z,98444.78
2022-09-14T15:27:57.259Z,98454.59
2022-09-14T15:30:25.381Z,98453.72
2022-09-14T15:32:53.666Z,98445.25
2022-09-14T15:35:23.361Z,98444.41
2022-09-14T15:37:51.651Z,98440.84
2022-09-14T15:40:19.995Z,98444.72
2022-09-14T15:42:48.348Z,98448.28
2022-09-14T15:45:16.684Z,98434.75
2022-09-14T15:47:45.111Z,98431.72
2022-09-14T15:50:13.419Z,98436.84
2022-09-14T15:52:43.142Z,98437.38
2022-09-14T15:55:12.922Z,98437.63
2022-09-14T15:57:41.643Z,98433.00
2022-09-14T16:00:12.961Z,98424.00
2022-09-14T16:02:44.418Z,98416.84
2022-09-14T16:05:13.211Z,98423.38
2022-09-14T16:07:42.854Z,98423.31
2022-09-14T16:10:11.684Z,98421.63
2022-09-14T16:12:40.018Z,98415.97
2022-09-14T16:15:09.708Z,98421.63
2022-09-14T16:17:37.971Z,98420.19
2022-09-14T16:20:08.945Z,98410.84
2022-09-14T16:22:37.678Z,98408.97
2022-09-14T16:25:07.692Z,98413.06
2022-09-14T16:27:35.951Z,98406.19
2022-09-14T16:30:04.589Z,98415.53
2022-09-14T16:32:32.955Z,98417.72
2022-09-14T16:35:03.680Z,98409.41
2022-09-14T16:37:35.733Z,98399.69
2022-09-14T16:40:04.749Z,98392.69
2022-09-14T16:42:34.331Z,98393.75
2022-09-14T16:45:02.471Z,98387.66
2022-09-14T16:47:32.389Z,98378.94
2022-09-14T16:50:00.681Z,98374.88
2022-09-14T16:52:29.855Z,98373.16
2022-09-14T16:54:58.185Z,98369.28
2022-09-14T16:57:27.189Z,98361.44
2022-09-14T16:59:56.684Z,98357.41
2022-09-14T17:02:25.024Z,98357.59
2022-09-14T17:04:53.952Z,98357.41
2022-09-14T17:07:23.915Z,98348.75
2022-09-14T17:09:52.042Z,98338.38
2022-09-14T17:12:20.143Z,98329.38
2022-09-14T17:14:48.532Z,98330.72
2022-09-14T17:17:18.357Z,98339.13
2022-09-14T17:19:46.999Z,98335.31
2022-09-14T17:22:15.723Z,98341.84
2022-09-14T17:24:44.195Z,98335.56
2022-09-14T17:27:12.435Z,98334.44
2022-09-14T17:29:40.931Z,98331.47
2022-09-14T17:32:14.062Z,98324.94
2022-09-14T17:34:46.314Z,98327.91
2022-09-14T17:37:14.809Z,98311.59
2022-09-14T17:39:43.279Z,98327.13
2022-09-14T17:42:11.672Z,98324.41
2022-09-14T17:44:41.087Z,98319.75
2022-09-14T17:47:09.441Z,98327.63
2022-09-14T17:49:38.109Z,98324.66
2022-09-14T17:52:10.717Z,98324.94
2022-09-14T17:54:39.241Z,98318.38
2022-09-14T17:57:07.716Z,98312.34
2022-09-14T17:59:35.895Z,98310.97
2022-09-14T18:02:04.269Z,98317.78
2022-09-14T18:04:32.408Z,98313.44
2022-09-14T18:07:00.800Z,98315.56
2022-09-14T18:09:31.210Z,98312.44
2022-09-14T18:11:59.586Z,98315.41
2022-09-14T18:14:28.162Z,98314.03
2022-09-14T18:16:58.580Z,98313.09
2022-09-14T18:19:27.253Z,98311.22
2022-09-14T18:21:55.929Z,98307.25
2022-09-14T18:24:24.530Z,98303.38
2022-09-14T18:26:54.417Z,98296.28
2022-09-14T18:29:23.957Z,98290.84
2022-09-14T18:31:52.851Z,98297.28
2022-09-14T18:34:22.760Z,98304.88
2022-09-14T18:36:52.547Z,98306.78
2022-09-14T18:39:21.084Z,98306.22
2022-09-14T18:41:54.104Z,98306.72
2022-09-14T18:44:23.045Z,98305.31
2022-09-14T18:46:51.992Z,98305.41
2022-09-14T18:49:21.027Z,98297.84
2022-09-14T18:51:49.789Z,98292.91
2022-09-14T18:54:18.838Z,98290.19
2022-09-14T18:56:47.397Z,98304.28
2022-09-14T18:59:17.337Z,98316.28
2022-09-14T19:01:46.099Z,98308.88
2022-09-14T19:04:16.094Z,98316.28
2022-09-14T19:06:44.830Z,98327.75
2022-09-14T19:09:13.758Z,98327.16
2022-09-14T19:11:42.966Z,98311.44
2022-09-14T19:14:14.194Z,98310.84
2022-09-14T19:16:44.126Z,98309.22
2022-09-14T19:19:15.004Z,98305.84
2022-09-14T19:21:44.301Z,98304.16
2022-09-14T19:24:14.452Z,98293.13
2022-09-14T19:26:45.473Z,98298.16
2022-09-14T19:29:15.154Z,98314.41
2022-09-14T19:31:45.192Z,98351.72
2022-09-14T19:34:13.922Z,98377.25
2022-09-14T19:36:42.592Z,98405.28
2022-09-14T19:39:11.380Z,98414.56
2022-09-14T19:41:40.399Z,98442.47
2022-09-14T19:44:10.655Z,98472.16
2022-09-14T19:46:40.058Z,98493.38
2022-09-14T19:49:15.140Z,98535.38
2022-09-14T19:51:43.678Z,98548.72
2022-09-14T19:54:12.821Z,98556.72
2022-09-14T19:56:42.264Z,98552.25
2022-09-14T19:59:11.025Z,98567.81
2022-09-14T20:01:40.446Z,98571.94
2022-09-14T20:04:11.828Z,98567.78
2022-09-14T20:06:43.018Z,98565.16
2022-09-14T20:09:13.796Z,98538.19
2022-09-14T20:11:43.869Z,98558.78
2022-09-14T20:14:13.769Z,98547.38
2022-09-14T20:16:44.909Z,98534.78
2022-09-14T20:19:16.233Z,98522.84
2022-09-14T20:21:45.835Z,98502.00
2022-09-14T20:24:17.721Z,98480.06
2022-09-14T20:26:47.213Z,98466.09
2022-09-14T20:29:16.470Z,98450.69
2022-09-14T20:31:45.488Z,98440.53
2022-09-14T20:34:16.563Z,98421.44
2022-09-14T20:36:44.887Z,98408.56
2022-09-14T20:39:13.181Z,98411.66
2022-09-14T20:41:43.584Z,98391.97
2022-09-14T20:44:12.084Z,98404.72
2022-09-14T20:46:42.983Z,98413.94
2022-09-14T20:49:13.321Z,98421.94
2022-09-14T20:51:46.849Z,98415.31
2022-09-14T20:54:18.162Z,98388.13
2022-09-14T20:56:47.297Z,98398.25
2022-09-14T20:59:18.868Z,98390.59
2022-09-14T21:01:49.426Z,98380.00
2022-09-14T21:04:20.121Z,98372.69
2022-09-14T21:06:53.538Z,98371.25
2022-09-14T21:09:24.151Z,98388.72
2022-09-14T21:11:52.936Z,98383.38
2022-09-14T21:14:21.719Z,98377.38
2022-09-14T21:16:51.899Z,98386.69
2022-09-14T21:19:22.686Z,98401.44
2022-09-14T21:21:52.634Z,98398.13
2022-09-14T21:24:22.128Z,98402.38
2022-09-14T21:26:50.710Z,98401.69
2022-09-14T21:29:22.976Z,98399.91
2022-09-14T21:31:51.626Z,98402.97
2022-09-14T21:34:20.192Z,98399.78
2022-09-14T21:36:50.926Z,98407.19
2022-09-14T21:39:23.435Z,98404.97
2022-09-14T21:41:57.323Z,98399.91
2022-09-14T21:44:29.713Z,98410.28
2022-09-14T21:46:58.084Z,98410.16
2022-09-14T21:49:26.474Z,98414.78
2022-09-14T21:51:55.028Z,98417.00
2022-09-14T21:54:24.771Z,98422.19
2022-09-14T21:56:53.908Z,98422.53
2022-09-14T21:59:23.736Z,98420.88
2022-09-14T22:01:52.274Z,98427.84
2022-09-14T22:04:22.165Z,98410.28
2022-09-14T22:06:51.514Z,98410.63
2022-09-14T22:09:22.398Z,98404.16
2022-09-14T22:11:53.221Z,98416.16
2022-09-14T22:14:23.274Z,98419.25
2022-09-14T22:16:51.633Z,98388.81
2022-09-14T22:19:21.554Z,98410.28
2022-09-14T22:21:51.067Z,98413.13
2022-09-14T22:24:21.089Z,98425.25
2022-09-14T22:26:50.430Z,98413.19
2022-09-14T22:29:20.044Z,98411.44
2022-09-14T22:31:48.867Z,98404.88
2022-09-14T22:34:17.818Z,98405.56
2022-09-14T22:36:46.844Z,98399.44
2022-09-14T22:39:15.407Z,98403.41
2022-09-14T22:41:43.858Z,98405.81
2022-09-14T22:44:13.008Z,98403.94
2022-09-14T22:46:43.281Z,98417.44
2022-09-14T22:49:11.660Z,98418.41
2022-09-14T22:51:39.865Z,98432.06
2022-09-14T22:54:08.693Z,98432.97
2022-09-14T22:56:38.607Z,98436.94
2022-09-14T22:59:08.051Z,98433.72
2022-09-14T23:01:38.199Z,98420.03
2022-09-14T23:04:09.488Z,98412.28
2022-09-14T23:06:39.771Z,98405.66
2022-09-14T23:09:08.987Z,98404.59
2022-09-14T23:11:37.766Z,98408.97
2022-09-14T23:14:06.051Z,98412.03
2022-09-14T23:16:34.155Z,98415.91
2022-09-14T23:19:03.761Z,98424.50
2022-09-14T23:21:33.671Z,98421.94
2022-09-14T23:24:04.060Z,98425.06
2022-09-14T23:26:32.978Z,98419.97
2022-09-14T23:29:03.077Z,98416.94
2022-09-14T23:31:32.300Z,98426.50
2022-09-14T23:34:02.719Z,98424.66
2022-09-14T23:36:31.510Z,98413.09
2022-09-14T23:39:01.231Z,98422.31
2022-09-14T23:41:29.703Z,98416.38
2022-09-14T23:43:57.905Z,98415.66
2022-09-14T23:46:26.255Z,98418.38
2022-09-14T23:48:57.011Z,98409.66
2022-09-14T23:51:25.165Z,98411.66
2022-09-14T23:53:53.619Z,98415.06
2022-09-14T23:56:23.873Z,98418.50
2022-09-14T23:58:52.228Z,98414.94
